Time;durP1;ratioP1;P1;durP2;ratioP2;P2;SDS_P1;SDS_P2;PMS_P1;PMS_P2;Temp;Humidity;BMP_temperature;BMP_pressure;BME280_temperature;BME280_humidity;BME280_pressure;Samples;Min_cycle;Max_cycle;Signal;HPM_P1;HPM_P2
2022/08/22 00:00:10;;;;;;;9.02;6.97;;;;;;;;;;5015805;28;20676;-59
2022/08/22 00:03:01;;;;;;;12.10;7.70;;;;;;;;;;5015928;28;20226;-59
2022/08/22 00:06:08;;;;;;;12.75;7.00;;;;;;;;;;5015719;28;20241;-59
2022/08/22 00:08:56;;;;;;;9.82;7.20;;;;;;;;;;5016807;28;20194;-59
2022/08/22 00:11:43;;;;;;;11.63;7.90;;;;;;;;;;5036955;28;20672;-59
2022/08/22 00:15:01;;;;;;;10.00;7.60;;;;;;;;;;5036783;28;20204;-59
2022/08/22 00:17:46;;;;;;;15.25;7.97;;;;;;;;;;5015272;28;20237;-59
2022/08/22 00:20:27;;;;;;;9.13;7.28;;;;;;;;;;5035562;28;20283;-59
2022/08/22 00:22:59;;;;;;;9.65;7.28;;;;;;;;;;5052379;28;20211;-59
2022/08/22 00:25:32;;;;;;;8.45;7.13;;;;;;;;;;5052149;28;20232;-59
2022/08/22 00:28:06;;;;;;;10.60;7.65;;;;;;;;;;5037440;28;20331;-59
2022/08/22 00:30:42;;;;;;;14.93;7.75;;;;;;;;;;5035842;28;20196;-59
2022/08/22 00:33:19;;;;;;;11.63;7.65;;;;;;;;;;5035917;28;20196;-59
2022/08/22 00:35:48;;;;;;;11.48;7.45;;;;;;;;;;5035586;28;20212;-59
2022/08/22 00:38:26;;;;;;;10.63;7.80;;;;;;;;;;5036317;28;20618;-59
2022/08/22 00:41:00;;;;;;;10.85;7.70;;;;;;;;;;5035865;28;20219;-59
2022/08/22 00:44:04;;;;;;;14.75;7.60;;;;;;;;;;5036435;28;20208;-59
2022/08/22 00:46:31;;;;;;;12.38;8.05;;;;;;;;;;5036382;28;20230;-59
2022/08/22 00:49:10;;;;;;;14.55;7.85;;;;;;;;;;5036059;28;20215;-59
2022/08/22 00:52:05;;;;;;;11.90;7.60;;;;;;;;;;5035907;28;20232;-59
2022/08/22 00:54:58;;;;;;;15.38;7.70;;;;;;;;;;5036283;28;20195;-59
2022/08/22 00:58:16;;;;;;;16.27;7.65;;;;;;;;;;5051558;28;20204;-59
2022/08/22 01:00:56;;;;;;;12.23;7.60;;;;;;;;;;5026606;28;20200;-59
2022/08/22 01:03:32;;;;;;;13.63;7.75;;;;;;;;;;5035486;28;20209;-59
2022/08/22 01:06:23;;;;;;;15.00;7.63;;;;;;;;;;5035981;28;20236;-59
2022/08/22 01:09:12;;;;;;;15.55;8.18;;;;;;;;;;5034843;28;20287;-59
2022/08/22 01:12:06;;;;;;;14.27;8.43;;;;;;;;;;5035569;28;20220;-59
2022/08/22 01:15:04;;;;;;;13.55;8.02;;;;;;;;;;5051839;28;20201;-59
2022/08/22 01:18:00;;;;;;;12.50;8.48;;;;;;;;;;5035434;28;20292;-59
2022/08/22 01:21:01;;;;;;;12.65;7.93;;;;;;;;;;5035801;28;20603;-59
2022/08/22 01:23:59;;;;;;;15.10;8.27;;;;;;;;;;5035513;28;20215;-59
2022/08/22 01:26:53;;;;;;;17.30;8.02;;;;;;;;;;5035372;28;20225;-59
2022/08/22 01:29:49;;;;;;;17.67;8.57;;;;;;;;;;5035590;28;20205;-59
2022/08/22 01:32:58;;;;;;;12.68;8.52;;;;;;;;;;5035518;28;20262;-59
2022/08/22 01:35:47;;;;;;;16.08;9.23;;;;;;;;;;5025548;28;20209;-59
2022/08/22 01:38:36;;;;;;;17.73;8.68;;;;;;;;;;5034649;28;20227;-59
2022/08/22 01:41:05;;;;;;;19.35;8.77;;;;;;;;;;5035614;28;20208;-59
2022/08/22 01:43:57;;;;;;;15.38;8.63;;;;;;;;;;5035590;28;20204;-59
2022/08/22 01:46:31;;;;;;;12.52;8.80;;;;;;;;;;5035062;28;20228;-59
2022/08/22 01:49:18;;;;;;;22.60;9.35;;;;;;;;;;5035565;28;20296;-59
2022/08/22 01:52:08;;;;;;;18.48;9.32;;;;;;;;;;5050477;28;20228;-60
2022/08/22 01:54:44;;;;;;;18.83;10.32;;;;;;;;;;5035250;28;20274;-59
2022/08/22 01:57:12;;;;;;;21.10;9.40;;;;;;;;;;5050720;28;20208;-59
2022/08/22 01:59:43;;;;;;;19.98;9.52;;;;;;;;;;5035097;28;20231;-59
2022/08/22 02:02:38;;;;;;;14.27;9.23;;;;;;;;;;5051266;28;20577;-59
2022/08/22 02:05:25;;;;;;;16.50;9.93;;;;;;;;;;5034242;28;20212;-58
2022/08/22 02:08:20;;;;;;;16.80;9.68;;;;;;;;;;5034774;28;20592;-59
2022/08/22 02:11:06;;;;;;;21.25;10.07;;;;;;;;;;5035088;28;20197;-59
2022/08/22 02:14:13;;;;;;;15.75;10.38;;;;;;;;;;5033886;28;20621;-59
2022/08/22 02:16:46;;;;;;;18.55;11.05;;;;;;;;;;5034979;28;20279;-59
2022/08/22 02:19:13;;;;;;;17.73;10.57;;;;;;;;;;5034481;28;20209;-59
2022/08/22 02:21:49;;;;;;;19.98;11.10;;;;;;;;;;5034913;28;20209;-59
2022/08/22 02:24:37;;;;;;;23.30;11.20;;;;;;;;;;5034929;28;20204;-59
2022/08/22 02:27:24;;;;;;;20.92;11.10;;;;;;;;;;5050083;28;20224;-59
2022/08/22 02:30:07;;;;;;;20.80;10.70;;;;;;;;;;5035013;28;20239;-59
2022/08/22 02:32:39;;;;;;;16.45;10.07;;;;;;;;;;5034870;28;20192;-60
2022/08/22 02:35:09;;;;;;;18.83;10.55;;;;;;;;;;5035064;28;20204;-60
2022/08/22 02:37:46;;;;;;;18.63;10.50;;;;;;;;;;5050273;28;20213;-59
2022/08/22 02:40:27;;;;;;;20.33;10.45;;;;;;;;;;5050467;28;20188;-59
2022/08/22 02:43:01;;;;;;;17.23;10.55;;;;;;;;;;5033741;28;20269;-59
2022/08/22 02:45:43;;;;;;;17.60;10.90;;;;;;;;;;5050052;28;20608;-59
2022/08/22 02:48:32;;;;;;;20.55;11.63;;;;;;;;;;5050430;28;20213;-59
2022/08/22 02:51:29;;;;;;;23.73;11.63;;;;;;;;;;5050136;28;20204;-59
2022/08/22 02:54:10;;;;;;;23.02;11.73;;;;;;;;;;5049756;28;20648;-59
2022/08/22 02:56:48;;;;;;;24.52;11.07;;;;;;;;;;5034172;28;20625;-59
2022/08/22 02:59:38;;;;;;;20.13;11.35;;;;;;;;;;5033339;28;20204;-59
2022/08/22 03:02:34;;;;;;;28.38;11.98;;;;;;;;;;5034426;28;20197;-59
2022/08/22 03:05:28;;;;;;;17.20;11.15;;;;;;;;;;5033602;28;20312;-59
2022/08/22 03:08:02;;;;;;;19.15;11.60;;;;;;;;;;5034171;28;20236;-59
2022/08/22 03:10:44;;;;;;;26.73;11.90;;;;;;;;;;5049698;28;20184;-58
2022/08/22 03:13:36;;;;;;;23.25;11.77;;;;;;;;;;5033365;28;20267;-59
2022/08/22 03:16:09;;;;;;;21.95;11.75;;;;;;;;;;5033868;28;20205;-59
2022/08/22 03:19:02;;;;;;;24.02;12.85;;;;;;;;;;5033456;28;20196;-59
2022/08/22 03:21:33;;;;;;;27.02;12.63;;;;;;;;;;5031228;28;20205;-59
2022/08/22 03:24:14;;;;;;;20.05;11.68;;;;;;;;;;5033935;28;20621;-59
2022/08/22 03:27:00;;;;;;;16.95;11.48;;;;;;;;;;5033675;28;20557;-58
2022/08/22 03:29:32;;;;;;;22.23;11.52;;;;;;;;;;5034053;28;20205;-59
2022/08/22 03:32:24;;;;;;;25.10;11.98;;;;;;;;;;5051991;28;20208;-59
2022/08/22 03:35:02;;;;;;;23.55;11.98;;;;;;;;;;5036575;28;20223;-59
2022/08/22 03:37:39;;;;;;;21.75;12.00;;;;;;;;;;5036718;28;20199;-59
2022/08/22 03:40:18;;;;;;;19.85;12.05;;;;;;;;;;5037223;28;20211;-59
2022/08/22 03:43:20;;;;;;;21.55;12.35;;;;;;;;;;5037223;28;20691;-59
2022/08/22 03:46:03;;;;;;;20.70;11.30;;;;;;;;;;5053095;28;20197;-60
2022/08/22 03:48:42;;;;;;;20.35;11.60;;;;;;;;;;5052993;28;20220;-59
2022/08/22 03:51:30;;;;;;;21.10;12.35;;;;;;;;;;5037074;28;20302;-60
2022/08/22 03:54:18;;;;;;;23.55;12.38;;;;;;;;;;5036363;28;20208;-59
2022/08/22 03:57:07;;;;;;;19.20;12.45;;;;;;;;;;5037247;28;20212;-59
2022/08/22 03:59:43;;;;;;;22.60;12.77;;;;;;;;;;5037566;28;20296;-59
2022/08/22 04:02:42;;;;;;;21.15;12.15;;;;;;;;;;5037143;28;20215;-60
2022/08/22 04:05:37;;;;;;;28.52;12.13;;;;;;;;;;5053322;28;20219;-59
2022/08/22 04:08:27;;;;;;;27.35;12.10;;;;;;;;;;5069725;28;20286;-59
2022/08/22 04:11:20;;;;;;;19.50;12.68;;;;;;;;;;5056318;28;20198;-59
2022/08/22 04:14:06;;;;;;;21.08;12.90;;;;;;;;;;5050242;28;20228;-60
2022/08/22 04:16:49;;;;;;;25.05;12.40;;;;;;;;;;5039012;28;20281;-59
2022/08/22 04:19:39;;;;;;;24.48;13.23;;;;;;;;;;5056761;28;20556;-60
2022/08/22 04:22:38;;;;;;;24.17;13.07;;;;;;;;;;5046315;28;20265;-60
2022/08/22 04:25:18;;;;;;;21.02;12.98;;;;;;;;;;5055852;28;20220;-60
2022/08/22 04:27:57;;;;;;;23.88;13.68;;;;;;;;;;5043074;28;20234;-59
2022/08/22 04:30:34;;;;;;;20.13;13.55;;;;;;;;;;5044937;28;20234;-60
2022/08/22 04:33:15;;;;;;;23.60;14.63;;;;;;;;;;5044524;28;20315;-59
2022/08/22 04:35:57;;;;;;;22.88;13.10;;;;;;;;;;5045187;28;20228;-60
2022/08/22 04:38:46;;;;;;;26.05;15.07;;;;;;;;;;5044644;28;20224;-60
2022/08/22 04:41:19;;;;;;;24.52;15.40;;;;;;;;;;5044665;28;20281;-59
2022/08/22 04:43:46;;;;;;;23.58;14.77;;;;;;;;;;5044081;28;20306;-59
2022/08/22 04:46:26;;;;;;;26.17;14.32;;;;;;;;;;5043897;28;20606;-59
2022/08/22 04:49:19;;;;;;;31.90;16.00;;;;;;;;;;5049167;28;20216;-59
2022/08/22 04:51:51;;;;;;;24.63;16.10;;;;;;;;;;5035640;28;20264;-59
2022/08/22 04:55:06;;;;;;;25.63;15.60;;;;;;;;;;5050119;28;20755;-60
2022/08/22 04:58:09;;;;;;;34.97;15.48;;;;;;;;;;5020698;28;20347;-60
2022/08/22 05:00:43;;;;;;;27.88;15.10;;;;;;;;;;4988316;28;20574;-60
2022/08/22 05:03:14;;;;;;;30.85;14.82;;;;;;;;;;5022793;28;20344;-59
2022/08/22 05:05:42;;;;;;;27.20;15.63;;;;;;;;;;5020205;28;20217;-59
2022/08/22 05:08:12;;;;;;;27.55;16.05;;;;;;;;;;5006164;28;20232;-59
2022/08/22 05:10:44;;;;;;;26.33;14.25;;;;;;;;;;5020739;28;20978;-59
2022/08/22 05:13:24;;;;;;;24.27;15.48;;;;;;;;;;5025489;28;20646;-59
2022/08/22 05:15:55;;;;;;;34.65;16.08;;;;;;;;;;5024745;28;20280;-59
2022/08/22 05:18:25;;;;;;;22.42;15.30;;;;;;;;;;5023757;28;20200;-59
2022/08/22 05:20:58;;;;;;;27.63;15.10;;;;;;;;;;5004211;28;20618;-59
2022/08/22 05:23:29;;;;;;;27.23;15.00;;;;;;;;;;5023138;28;20204;-59
2022/08/22 05:25:59;;;;;;;21.70;14.07;;;;;;;;;;5024410;28;20204;-59
2022/08/22 05:28:34;;;;;;;26.52;14.25;;;;;;;;;;5024188;28;20217;-60
2022/08/22 05:31:04;;;;;;;27.23;14.80;;;;;;;;;;5029282;28;20196;-60
2022/08/22 05:33:38;;;;;;;23.13;14.27;;;;;;;;;;5043830;28;20204;-58
2022/08/22 05:36:15;;;;;;;27.02;15.38;;;;;;;;;;5043775;28;20185;-59
2022/08/22 05:38:47;;;;;;;30.42;14.85;;;;;;;;;;5047767;28;20553;-59
2022/08/22 05:41:24;;;;;;;24.65;14.50;;;;;;;;;;5041992;28;20728;-60
2022/08/22 05:43:53;;;;;;;29.25;15.85;;;;;;;;;;5043935;28;20693;-59
2022/08/22 05:46:52;;;;;;;28.08;15.10;;;;;;;;;;5043679;28;20220;-59
2022/08/22 05:49:43;;;;;;;24.98;15.18;;;;;;;;;;5047818;28;20223;-59
2022/08/22 05:52:37;;;;;;;21.25;14.57;;;;;;;;;;5037692;28;20236;-59
2022/08/22 05:55:18;;;;;;;23.75;14.43;;;;;;;;;;5040253;28;20542;-60
2022/08/22 05:57:50;;;;;;;19.27;13.98;;;;;;;;;;5054421;28;20220;-60
2022/08/22 06:00:20;;;;;;;26.13;15.05;;;;;;;;;;5045651;28;20231;-59
2022/08/22 06:03:12;;;;;;;21.48;14.77;;;;;;;;;;5050555;28;20224;-60
2022/08/22 06:05:46;;;;;;;27.65;15.43;;;;;;;;;;5054116;28;20203;-60
2022/08/22 06:08:37;;;;;;;22.98;15.38;;;;;;;;;;5053110;28;20251;-60
2022/08/22 06:11:33;;;;;;;22.45;14.85;;;;;;;;;;5052936;28;20204;-60
2022/08/22 06:14:25;;;;;;;23.05;15.30;;;;;;;;;;5048556;28;20227;-60
2022/08/22 06:17:14;;;;;;;25.10;15.50;;;;;;;;;;5053412;28;20208;-60
2022/08/22 06:19:45;;;;;;;28.02;16.30;;;;;;;;;;5054088;28;20172;-59
2022/08/22 06:22:22;;;;;;;24.00;14.88;;;;;;;;;;5054991;28;20196;-60
2022/08/22 06:24:52;;;;;;;22.13;15.20;;;;;;;;;;5054220;28;20204;-60
2022/08/22 06:27:23;;;;;;;28.35;16.15;;;;;;;;;;5053570;28;20238;-60
2022/08/22 06:29:56;;;;;;;24.02;15.60;;;;;;;;;;5055128;28;20266;-60
2022/08/22 06:32:28;;;;;;;23.13;14.65;;;;;;;;;;5054506;28;20249;-60
2022/08/22 06:38:27;;;;;;;24.75;16.40;;;;;;;;;;5053705;28;20197;-60
2022/08/22 06:40:55;;;;;;;20.80;15.40;;;;;;;;;;5054295;28;20238;-59
2022/08/22 06:43:23;;;;;;;28.70;17.15;;;;;;;;;;5053837;28;20208;-60
2022/08/22 06:45:52;;;;;;;26.83;16.63;;;;;;;;;;5054305;28;20540;-59
2022/08/22 06:48:22;;;;;;;23.33;15.70;;;;;;;;;;5053739;28;20228;-60
2022/08/22 06:50:54;;;;;;;23.67;15.23;;;;;;;;;;5052974;28;21545;-59
2022/08/22 06:53:37;;;;;;;26.38;15.27;;;;;;;;;;5061283;28;20270;-60
2022/08/22 06:56:20;;;;;;;28.05;14.35;;;;;;;;;;5061780;28;20662;-60
2022/08/22 06:58:48;;;;;;;21.75;14.25;;;;;;;;;;5055707;28;20296;-59
2022/08/22 07:01:22;;;;;;;27.15;14.48;;;;;;;;;;5056197;28;20207;-59
2022/08/22 07:03:53;;;;;;;23.20;14.38;;;;;;;;;;5064626;28;20633;-59
2022/08/22 07:06:28;;;;;;;22.77;13.75;;;;;;;;;;5068290;28;20191;-59
2022/08/22 07:08:55;;;;;;;24.08;14.27;;;;;;;;;;5060484;28;20663;-59
2022/08/22 07:11:31;;;;;;;27.50;14.15;;;;;;;;;;5073318;28;20204;-59
2022/08/22 07:14:02;;;;;;;21.52;13.70;;;;;;;;;;5065129;28;20302;-59
2022/08/22 07:16:38;;;;;;;22.95;13.45;;;;;;;;;;5064245;28;20197;-59
2022/08/22 07:19:06;;;;;;;19.92;12.50;;;;;;;;;;5075115;28;20278;-59
2022/08/22 07:21:45;;;;;;;25.38;13.88;;;;;;;;;;5055778;28;20536;-59
2022/08/22 07:24:17;;;;;;;22.10;12.82;;;;;;;;;;5057512;28;20188;-59
2022/08/22 07:27:07;;;;;;;20.17;12.00;;;;;;;;;;5057780;28;20192;-59
2022/08/22 07:29:48;;;;;;;28.80;11.75;;;;;;;;;;5058081;28;20192;-59
2022/08/22 07:32:56;;;;;;;24.13;11.18;;;;;;;;;;5057801;28;20187;-59
2022/08/22 07:35:49;;;;;;;18.88;10.43;;;;;;;;;;5056435;28;20203;-60
2022/08/22 07:38:41;;;;;;;25.67;11.40;;;;;;;;;;5056982;28;20275;-59
2022/08/22 07:41:12;;;;;;;21.80;11.05;;;;;;;;;;5057013;28;20183;-59
2022/08/22 07:43:52;;;;;;;22.40;11.00;;;;;;;;;;5057863;28;20203;-59
2022/08/22 07:46:27;;;;;;;19.30;11.43;;;;;;;;;;5056331;28;20188;-59
2022/08/22 07:49:07;;;;;;;23.83;11.27;;;;;;;;;;5056202;28;20273;-59
2022/08/22 07:51:48;;;;;;;26.67;10.13;;;;;;;;;;5056582;28;20223;-59
2022/08/22 07:54:42;;;;;;;26.67;10.05;;;;;;;;;;5056775;28;20266;-59
2022/08/22 07:57:23;;;;;;;20.48;9.10;;;;;;;;;;5056480;28;20185;-59
2022/08/22 07:59:53;;;;;;;27.30;9.38;;;;;;;;;;5056798;28;20261;-59
2022/08/22 08:02:21;;;;;;;25.92;10.00;;;;;;;;;;5056404;28;20196;-59
2022/08/22 08:04:50;;;;;;;17.13;10.05;;;;;;;;;;5056334;28;20583;-59
2022/08/22 08:07:23;;;;;;;19.27;10.02;;;;;;;;;;5054266;28;20200;-60
2022/08/22 08:09:58;;;;;;;19.98;9.68;;;;;;;;;;5068639;28;20226;-59
2022/08/22 08:12:38;;;;;;;19.60;10.10;;;;;;;;;;5077314;28;20191;-59
2022/08/22 08:15:09;;;;;;;21.42;10.05;;;;;;;;;;5075951;28;20616;-59
2022/08/22 08:17:38;;;;;;;20.23;10.73;;;;;;;;;;5059597;28;20192;-59
2022/08/22 08:20:12;;;;;;;22.10;10.90;;;;;;;;;;5076082;28;20203;-59
2022/08/22 08:22:42;;;;;;;18.40;9.82;;;;;;;;;;5075819;28;20195;-60
2022/08/22 08:25:14;;;;;;;20.50;10.32;;;;;;;;;;5076010;28;20206;-60
2022/08/22 08:30:31;;;;;;;16.67;8.52;;;;;;;;;;5066060;28;20203;-59
2022/08/22 08:33:00;;;;;;;24.35;8.48;;;;;;;;;;5056773;28;20226;-59
2022/08/22 08:36:20;;;;;;;21.67;9.00;;;;;;;;;;5056445;28;20188;-59
2022/08/22 08:38:54;;;;;;;22.02;8.45;;;;;;;;;;5034735;28;20224;-59
2022/08/22 08:41:37;;;;;;;20.42;8.30;;;;;;;;;;5034690;28;20513;-60
2022/08/22 08:44:23;;;;;;;19.70;8.40;;;;;;;;;;5034824;28;20208;-59
2022/08/22 08:47:08;;;;;;;25.13;9.23;;;;;;;;;;5034806;28;20189;-59
2022/08/22 08:50:07;;;;;;;21.40;9.05;;;;;;;;;;5034549;28;20231;-59
2022/08/22 08:52:35;;;;;;;21.15;8.57;;;;;;;;;;5034537;28;20237;-60
2022/08/22 08:55:29;;;;;;;19.27;7.43;;;;;;;;;;5033678;28;20213;-60
2022/08/22 08:58:06;;;;;;;24.35;7.57;;;;;;;;;;4974956;28;20223;-59
2022/08/22 09:01:05;;;;;;;21.20;7.85;;;;;;;;;;4975563;28;20220;-59
2022/08/22 09:03:42;;;;;;;18.15;7.40;;;;;;;;;;4975510;28;20206;-60
2022/08/22 09:06:44;;;;;;;24.05;7.78;;;;;;;;;;4975432;28;20194;-59
2022/08/22 09:09:31;;;;;;;28.88;7.85;;;;;;;;;;4975346;28;20807;-61
2022/08/22 09:12:41;;;;;;;16.65;7.72;;;;;;;;;;4974575;28;20277;-60
2022/08/22 09:15:54;;;;;;;31.83;7.88;;;;;;;;;;4963330;28;20274;-59
2022/08/22 09:18:57;;;;;;;24.45;7.25;;;;;;;;;;4955787;29;20215;-59
2022/08/22 09:21:49;;;;;;;26.67;8.02;;;;;;;;;;4956063;29;20555;-59
2022/08/22 09:24:31;;;;;;;22.13;7.35;;;;;;;;;;4955900;29;20199;-59
2022/08/22 09:27:04;;;;;;;25.77;8.00;;;;;;;;;;4940080;29;20199;-60
2022/08/22 09:29:48;;;;;;;23.67;7.57;;;;;;;;;;4939282;29;20314;-60
2022/08/22 09:32:30;;;;;;;23.73;7.40;;;;;;;;;;4940793;29;20520;-59
2022/08/22 09:35:21;;;;;;;25.08;7.40;;;;;;;;;;5004156;28;20200;-59
2022/08/22 09:38:17;;;;;;;27.95;7.43;;;;;;;;;;5055507;28;20195;-60
2022/08/22 09:40:51;;;;;;;23.23;7.13;;;;;;;;;;5055027;28;20695;-60
2022/08/22 09:43:33;;;;;;;22.83;7.05;;;;;;;;;;5054328;28;20218;-60
2022/08/22 09:46:12;;;;;;;28.70;7.53;;;;;;;;;;5033582;28;20213;-60
2022/08/22 09:48:42;;;;;;;26.98;7.25;;;;;;;;;;5033229;28;20228;-59
2022/08/22 09:51:17;;;;;;;22.95;7.85;;;;;;;;;;5024481;28;20623;-60
2022/08/22 09:54:18;;;;;;;20.55;7.20;;;;;;;;;;4999187;28;20267;-59
2022/08/22 09:56:51;;;;;;;23.17;7.82;;;;;;;;;;5013490;28;20193;-60
2022/08/22 09:59:42;;;;;;;18.13;7.30;;;;;;;;;;5013600;28;20193;-60
2022/08/22 10:02:25;;;;;;;20.92;7.25;;;;;;;;;;5013597;28;20342;-59
2022/08/22 10:04:55;;;;;;;26.88;8.85;;;;;;;;;;5013621;28;20739;-60
2022/08/22 10:07:54;;;;;;;22.30;7.88;;;;;;;;;;4997409;28;20205;-60
2022/08/22 10:10:59;;;;;;;20.42;8.30;;;;;;;;;;4997267;28;20201;-59
2022/08/22 10:13:34;;;;;;;22.92;7.40;;;;;;;;;;5013382;28;20201;-60
2022/08/22 10:16:24;;;;;;;20.55;8.00;;;;;;;;;;5013397;28;20205;-59
2022/08/22 10:19:25;;;;;;;26.95;7.93;;;;;;;;;;5013422;28;20201;-59
2022/08/22 10:22:33;;;;;;;23.73;8.60;;;;;;;;;;5013165;28;20216;-60
2022/08/22 10:25:09;;;;;;;17.70;8.00;;;;;;;;;;5013300;28;20201;-60
2022/08/22 10:27:39;;;;;;;33.58;13.23;;;;;;;;;;4996890;28;20539;-59
2022/08/22 10:30:10;;;;;;;28.80;8.02;;;;;;;;;;5013273;28;20216;-60
2022/08/22 10:32:56;;;;;;;26.98;12.10;;;;;;;;;;5013233;28;20219;-60
2022/08/22 10:35:54;;;;;;;17.02;7.95;;;;;;;;;;5013352;28;20515;-60
2022/08/22 10:38:31;;;;;;;22.48;7.95;;;;;;;;;;5013016;28;20503;-60
2022/08/22 10:41:14;;;;;;;23.75;7.80;;;;;;;;;;5016086;28;20207;-60
2022/08/22 10:43:54;;;;;;;23.60;9.80;;;;;;;;;;5001236;28;20201;-59
2022/08/22 10:46:53;;;;;;;22.90;8.52;;;;;;;;;;5001609;28;20285;-60
2022/08/22 10:49:30;;;;;;;25.17;10.45;;;;;;;;;;5031050;28;20228;-59
2022/08/22 10:52:05;;;;;;;17.88;8.75;;;;;;;;;;5038495;28;20228;-60
2022/08/22 10:54:46;;;;;;;15.98;7.10;;;;;;;;;;5037366;28;20192;-59
2022/08/22 10:57:43;;;;;;;36.53;8.43;;;;;;;;;;5038436;28;20196;-60
2022/08/22 11:00:17;;;;;;;21.55;6.95;;;;;;;;;;5037572;28;20514;-60
2022/08/22 11:03:01;;;;;;;32.88;8.40;;;;;;;;;;5038051;28;20196;-60
2022/08/22 11:05:42;;;;;;;76.25;10.05;;;;;;;;;;5037263;28;20616;-60
2022/08/22 11:08:20;;;;;;;23.17;7.82;;;;;;;;;;5038184;28;20213;-60
2022/08/22 11:11:06;;;;;;;23.63;7.75;;;;;;;;;;5037088;28;20203;-60
2022/08/22 11:13:41;;;;;;;18.00;7.15;;;;;;;;;;5037898;28;20255;-60
2022/08/22 11:16:12;;;;;;;18.40;7.25;;;;;;;;;;5036906;28;20525;-60
2022/08/22 11:18:50;;;;;;;22.98;8.73;;;;;;;;;;5040591;28;20192;-59
2022/08/22 11:21:53;;;;;;;18.80;7.22;;;;;;;;;;5057611;28;20244;-60
2022/08/22 11:24:29;;;;;;;22.67;7.20;;;;;;;;;;5057555;28;20689;-61
2022/08/22 11:27:17;;;;;;;16.63;6.80;;;;;;;;;;5058115;28;20192;-60
2022/08/22 11:30:11;;;;;;;13.55;6.60;;;;;;;;;;5057138;28;20212;-60
2022/08/22 11:33:02;;;;;;;19.65;7.90;;;;;;;;;;5057064;28;20200;-60
2022/08/22 11:35:39;;;;;;;18.88;7.43;;;;;;;;;;5050867;28;20529;-59
2022/08/22 11:38:07;;;;;;;19.20;6.78;;;;;;;;;;5056690;28;20230;-61
2022/08/22 11:40:41;;;;;;;19.33;6.80;;;;;;;;;;5057600;28;20199;-60
2022/08/22 11:43:40;;;;;;;16.17;7.95;;;;;;;;;;5056785;28;20535;-60
2022/08/22 11:46:20;;;;;;;20.65;7.60;;;;;;;;;;5051880;28;20205;-60
2022/08/22 11:49:03;;;;;;;20.73;8.45;;;;;;;;;;5056247;28;20208;-60
2022/08/22 11:51:49;;;;;;;21.58;8.45;;;;;;;;;;5056007;28;20241;-60
2022/08/22 11:54:23;;;;;;;16.50;6.90;;;;;;;;;;5056688;28;20213;-60
2022/08/22 11:57:10;;;;;;;16.33;7.15;;;;;;;;;;5057451;28;20196;-60
2022/08/22 12:00:18;;;;;;;14.80;7.05;;;;;;;;;;5056404;28;20196;-61
2022/08/22 12:02:56;;;;;;;11.80;6.57;;;;;;;;;;5027390;28;20262;-61
2022/08/22 12:05:35;;;;;;;15.65;7.30;;;;;;;;;;5057277;28;20184;-61
2022/08/22 12:08:13;;;;;;;19.23;7.22;;;;;;;;;;5056930;28;20203;-60
2022/08/22 12:10:54;;;;;;;17.88;7.55;;;;;;;;;;5057503;28;20188;-59
2022/08/22 12:13:40;;;;;;;21.70;7.82;;;;;;;;;;5057157;28;20211;-59
2022/08/22 12:16:18;;;;;;;12.95;7.68;;;;;;;;;;5056220;28;20227;-59
2022/08/22 12:19:00;;;;;;;19.27;8.38;;;;;;;;;;5057236;28;20515;-60
2022/08/22 12:22:05;;;;;;;14.63;7.45;;;;;;;;;;5057136;28;20189;-59
2022/08/22 12:24:37;;;;;;;13.90;7.93;;;;;;;;;;5036802;28;20657;-60
2022/08/22 12:27:44;;;;;;;18.30;8.30;;;;;;;;;;5052204;28;20618;-61
2022/08/22 12:30:27;;;;;;;15.35;7.93;;;;;;;;;;5020915;28;20550;-60
2022/08/22 12:33:25;;;;;;;18.35;8.38;;;;;;;;;;5041859;28;20200;-61
2022/08/22 12:35:58;;;;;;;17.73;7.75;;;;;;;;;;5044312;28;20261;-60
2022/08/22 12:38:47;;;;;;;10.52;6.57;;;;;;;;;;5050701;28;20235;-60
2022/08/22 12:41:37;;;;;;;16.42;7.68;;;;;;;;;;5063134;28;20237;-60
2022/08/22 12:44:17;;;;;;;12.52;7.10;;;;;;;;;;5056891;28;20239;-60
2022/08/22 12:47:00;;;;;;;14.73;7.60;;;;;;;;;;5064099;28;20352;-61
2022/08/22 12:49:55;;;;;;;19.40;7.75;;;;;;;;;;5044180;28;20243;-60
2022/08/22 12:52:43;;;;;;;11.73;7.25;;;;;;;;;;5039564;28;20234;-60
2022/08/22 12:55:29;;;;;;;13.18;7.55;;;;;;;;;;5056511;28;20231;-60
2022/08/22 12:58:05;;;;;;;17.17;8.00;;;;;;;;;;5050127;28;20234;-60
2022/08/22 13:00:39;;;;;;;13.85;7.38;;;;;;;;;;5051941;28;20255;-60
2022/08/22 13:03:27;;;;;;;16.45;7.10;;;;;;;;;;5042643;28;20211;-61
2022/08/22 13:05:57;;;;;;;11.48;7.53;;;;;;;;;;5044278;28;20603;-60
2022/08/22 13:08:31;;;;;;;15.00;7.85;;;;;;;;;;5043938;28;20223;-60
2022/08/22 13:11:06;;;;;;;16.30;8.07;;;;;;;;;;5046214;28;20220;-60
2022/08/22 13:13:42;;;;;;;13.52;7.60;;;;;;;;;;5039525;28;20727;-60
2022/08/22 13:16:22;;;;;;;16.88;7.45;;;;;;;;;;5046102;28;20582;-61
2022/08/22 13:18:54;;;;;;;13.00;7.13;;;;;;;;;;5045045;28;20236;-61
2022/08/22 13:21:23;;;;;;;11.52;7.38;;;;;;;;;;5039639;28;20548;-61
2022/08/22 13:23:56;;;;;;;16.40;7.07;;;;;;;;;;5041213;28;20611;-61
2022/08/22 13:26:26;;;;;;;14.93;7.57;;;;;;;;;;5051271;28;20679;-61
2022/08/22 13:29:03;;;;;;;15.82;7.82;;;;;;;;;;5053861;28;20677;-61
2022/08/22 13:31:51;;;;;;;15.27;7.65;;;;;;;;;;5053820;28;20306;-60
2022/08/22 13:34:41;;;;;;;15.52;8.07;;;;;;;;;;5054113;28;20227;-61
2022/08/22 13:37:15;;;;;;;12.65;7.95;;;;;;;;;;5053322;28;20228;-61
2022/08/22 13:39:46;;;;;;;16.52;7.25;;;;;;;;;;5053573;28;20226;-61
2022/08/22 13:42:17;;;;;;;15.07;7.40;;;;;;;;;;5045372;28;20234;-60
2022/08/22 13:44:59;;;;;;;16.67;7.45;;;;;;;;;;5042841;28;20508;-61
2022/08/22 13:47:29;;;;;;;15.30;7.18;;;;;;;;;;5044404;28;20216;-61
2022/08/22 13:50:09;;;;;;;13.73;6.95;;;;;;;;;;5045306;28;20224;-60
2022/08/22 13:52:50;;;;;;;14.80;7.38;;;;;;;;;;5057400;28;20330;-61
2022/08/22 13:55:26;;;;;;;13.55;7.82;;;;;;;;;;5050899;28;20212;-61
2022/08/22 13:58:04;;;;;;;18.33;7.85;;;;;;;;;;5038723;28;20239;-61
2022/08/22 14:00:59;;;;;;;13.38;7.35;;;;;;;;;;5033415;28;20240;-61
2022/08/22 14:03:42;;;;;;;11.15;7.40;;;;;;;;;;5039384;28;20281;-61
2022/08/22 14:06:19;;;;;;;12.43;7.28;;;;;;;;;;5038658;28;20224;-60
2022/08/22 14:09:13;;;;;;;15.60;7.35;;;;;;;;;;5041200;28;20310;-60
2022/08/22 14:11:50;;;;;;;17.00;7.22;;;;;;;;;;5042723;28;20227;-60
2022/08/22 14:14:25;;;;;;;12.85;7.30;;;;;;;;;;5033766;28;20220;-59
2022/08/22 14:16:54;;;;;;;18.42;7.25;;;;;;;;;;5033544;28;20240;-58
2022/08/22 14:19:33;;;;;;;13.30;6.53;;;;;;;;;;5040845;28;20664;-62
2022/08/22 14:22:25;;;;;;;16.27;6.90;;;;;;;;;;5053000;28;20266;-61
2022/08/22 14:25:17;;;;;;;11.95;6.88;;;;;;;;;;5053961;28;20223;-61
2022/08/22 14:27:57;;;;;;;17.60;7.22;;;;;;;;;;5054053;28;20231;-60
2022/08/22 14:30:33;;;;;;;20.13;6.82;;;;;;;;;;5053535;28;20235;-61
2022/08/22 14:33:20;;;;;;;13.50;6.72;;;;;;;;;;5053544;28;20247;-60
2022/08/22 14:35:51;;;;;;;16.52;6.80;;;;;;;;;;5052262;28;20245;-60
2022/08/22 14:38:23;;;;;;;13.90;6.50;;;;;;;;;;5052712;28;20235;-61
2022/08/22 14:41:16;;;;;;;13.40;6.65;;;;;;;;;;5036495;28;20236;-60
2022/08/22 14:44:02;;;;;;;19.60;6.85;;;;;;;;;;5040951;28;20224;-61
2022/08/22 14:46:50;;;;;;;13.15;6.80;;;;;;;;;;5043901;28;20673;-60
2022/08/22 14:49:19;;;;;;;13.82;6.28;;;;;;;;;;5043629;28;20204;-61
2022/08/22 14:52:07;;;;;;;17.08;6.45;;;;;;;;;;5042775;28;20640;-61
2022/08/22 14:54:36;;;;;;;14.90;6.00;;;;;;;;;;5042953;28;20188;-62
2022/08/22 14:57:11;;;;;;;17.52;6.90;;;;;;;;;;5043913;28;20207;-59
2022/08/22 14:59:51;;;;;;;16.40;6.60;;;;;;;;;;5044125;28;20194;-58
2022/08/22 15:02:30;;;;;;;13.77;6.75;;;;;;;;;;5044358;28;20242;-57
2022/08/22 15:05:00;;;;;;;15.13;7.05;;;;;;;;;;5041520;28;20197;-57
2022/08/22 15:07:34;;;;;;;16.80;6.45;;;;;;;;;;5042050;28;20208;-66
2022/08/22 15:10:26;;;;;;;16.95;6.63;;;;;;;;;;5044897;28;20342;-72
2022/08/22 15:13:00;;;;;;;18.90;6.07;;;;;;;;;;5042555;28;20330;-63
2022/08/22 15:15:33;;;;;;;11.52;6.35;;;;;;;;;;5043478;28;20192;-61
2022/08/22 15:18:27;;;;;;;13.00;6.43;;;;;;;;;;5044640;28;20204;-62
2022/08/22 15:21:06;;;;;;;9.43;6.18;;;;;;;;;;5044606;28;20648;-62
2022/08/22 15:23:42;;;;;;;13.50;6.28;;;;;;;;;;5044954;28;20208;-62
2022/08/22 15:26:28;;;;;;;14.70;6.18;;;;;;;;;;5042639;28;20220;-61
2022/08/22 15:29:05;;;;;;;16.00;6.82;;;;;;;;;;5056854;28;20211;-61
2022/08/22 15:31:34;;;;;;;14.18;6.72;;;;;;;;;;5054035;28;20185;-62
2022/08/22 15:34:13;;;;;;;13.85;6.20;;;;;;;;;;5040197;28;20193;-61
2022/08/22 15:37:22;;;;;;;14.82;6.93;;;;;;;;;;5036762;28;20197;-61
2022/08/22 15:40:12;;;;;;;12.23;6.63;;;;;;;;;;5036978;28;20629;-62
2022/08/22 15:42:45;;;;;;;18.15;7.50;;;;;;;;;;5044153;28;20311;-60
2022/08/22 15:45:31;;;;;;;15.52;6.82;;;;;;;;;;5047925;28;20671;-63
2022/08/22 15:48:08;;;;;;;16.60;6.85;;;;;;;;;;5055759;28;20224;-61
2022/08/22 15:50:38;;;;;;;12.27;5.97;;;;;;;;;;5066833;28;20687;-60
2022/08/22 15:53:18;;;;;;;13.02;6.55;;;;;;;;;;5055856;28;20275;-61
2022/08/22 15:56:04;;;;;;;13.40;6.55;;;;;;;;;;5055215;28;20691;-62
2022/08/22 15:58:36;;;;;;;13.68;6.95;;;;;;;;;;5036543;28;20248;-62